createdAt,value
2023-01-26T00:02:06.492Z,15.30
2023-01-26T00:04:34.463Z,14.50
2023-01-26T00:07:02.425Z,14.20
2023-01-26T00:09:30.381Z,14.23
2023-01-26T00:11:58.346Z,14.70
2023-01-26T00:14:27.809Z,14.50
2023-01-26T00:16:55.763Z,14.97
2023-01-26T00:19:23.710Z,13.83
2023-01-26T00:21:51.677Z,14.43
2023-01-26T00:24:19.650Z,14.10
2023-01-26T00:26:47.695Z,14.70
2023-01-26T00:29:15.645Z,15.00
2023-01-26T00:31:45.071Z,16.40
2023-01-26T00:34:13.084Z,15.37
2023-01-26T00:36:41.058Z,15.47
2023-01-26T00:39:09.037Z,15.37
2023-01-26T00:41:54.551Z,14.07
2023-01-26T00:44:22.518Z,16.13
2023-01-26T00:46:52.006Z,16.70
2023-01-26T00:49:21.159Z,15.63
2023-01-26T00:51:49.422Z,15.93
2023-01-26T00:54:17.386Z,16.27
2023-01-26T00:56:45.350Z,15.70
2023-01-26T00:59:13.775Z,16.17
2023-01-26T01:01:41.775Z,15.93
2023-01-26T01:04:11.267Z,15.53
2023-01-26T01:06:39.362Z,16.33
2023-01-26T01:09:07.632Z,14.93
2023-01-26T01:11:35.732Z,14.97
2023-01-26T01:14:04.049Z,15.90
2023-01-26T01:16:32.020Z,14.70
2023-01-26T01:19:00.031Z,16.50
2023-01-26T01:21:29.369Z,14.33
2023-01-26T01:23:57.358Z,15.40
2023-01-26T01:26:25.737Z,16.77
2023-01-26T01:28:56.822Z,16.27
2023-01-26T01:31:25.990Z,17.37
2023-01-26T01:33:54.426Z,16.90
2023-01-26T01:36:22.608Z,16.03
2023-01-26T01:38:52.299Z,16.77
2023-01-26T01:41:22.772Z,16.30
2023-01-26T01:43:50.871Z,16.63
2023-01-26T01:46:34.846Z,16.57
2023-01-26T01:49:07.369Z,16.57
2023-01-26T01:51:41.317Z,17.20
2023-01-26T01:54:12.690Z,17.63
2023-01-26T01:56:43.633Z,17.20
2023-01-26T01:59:13.895Z,16.03
2023-01-26T02:01:42.709Z,17.90
2023-01-26T02:04:11.412Z,16.63
2023-01-26T02:06:44.863Z,17.50
2023-01-26T02:09:35.218Z,16.77
2023-01-26T02:12:05.788Z,16.77
2023-01-26T02:14:34.810Z,17.37
2023-01-26T02:17:02.794Z,17.20
2023-01-26T02:19:41.203Z,17.93
2023-01-26T02:22:17.787Z,16.60
2023-01-26T02:24:47.545Z,18.10
2023-01-26T02:27:16.901Z,17.53
2023-01-26T02:29:44.884Z,16.20
2023-01-26T02:32:12.826Z,18.17
2023-01-26T02:34:40.811Z,17.97
2023-01-26T02:37:15.622Z,17.80
2023-01-26T02:39:49.794Z,17.60
2023-01-26T02:42:38.019Z,17.60
2023-01-26T02:45:07.364Z,18.13
2023-01-26T02:47:35.361Z,16.93
2023-01-26T02:50:02.387Z,17.07
2023-01-26T02:52:32.246Z,18.53
2023-01-26T02:55:18.159Z,18.33
2023-01-26T02:57:48.174Z,17.47
2023-01-26T03:00:18.867Z,16.73
2023-01-26T03:02:47.907Z,17.53
2023-01-26T03:05:16.105Z,18.27
2023-01-26T03:07:44.207Z,17.37
2023-01-26T03:10:13.729Z,18.57
2023-01-26T03:12:41.791Z,18.37
2023-01-26T03:15:30.109Z,17.47
2023-01-26T03:18:28.698Z,17.60
2023-01-26T03:21:14.070Z,17.10
2023-01-26T03:23:59.642Z,18.37
2023-01-26T03:26:44.953Z,18.20
2023-01-26T03:29:12.980Z,18.40
2023-01-26T03:31:42.377Z,17.33
2023-01-26T03:34:10.469Z,17.60
2023-01-26T03:36:38.631Z,19.47
2023-01-26T03:39:06.834Z,18.90
2023-01-26T03:41:52.019Z,19.30
2023-01-26T03:44:37.506Z,18.90
2023-01-26T03:47:24.291Z,18.97
2023-01-26T03:50:10.215Z,18.50
2023-01-26T03:52:55.979Z,19.00
2023-01-26T03:55:41.454Z,18.90
2023-01-26T03:58:09.591Z,18.47
2023-01-26T04:00:37.635Z,19.53
2023-01-26T04:03:24.397Z,19.33
2023-01-26T04:06:15.895Z,19.00
2023-01-26T04:08:44.722Z,19.63
2023-01-26T04:11:12.770Z,18.63
2023-01-26T04:13:58.469Z,17.97
2023-01-26T04:16:44.049Z,19.03
2023-01-26T04:19:31.363Z,18.60
2023-01-26T04:22:00.876Z,19.27
2023-01-26T04:24:28.914Z,18.27
2023-01-26T04:26:56.959Z,19.53
2023-01-26T04:29:24.938Z,18.87
2023-01-26T04:31:53.073Z,17.70
2023-01-26T04:34:22.817Z,18.87
2023-01-26T04:36:51.050Z,18.30
2023-01-26T04:39:19.102Z,18.50
2023-01-26T04:41:47.095Z,19.20
2023-01-26T04:44:15.106Z,19.43
2023-01-26T04:46:43.353Z,18.90
2023-01-26T04:49:11.322Z,18.40
2023-01-26T04:51:40.647Z,18.70
2023-01-26T04:54:08.830Z,17.33
2023-01-26T04:56:37.363Z,17.77
2023-01-26T04:59:07.185Z,19.03
2023-01-26T05:01:35.596Z,18.97
2023-01-26T05:04:05.188Z,18.53
2023-01-26T05:06:33.576Z,18.80
2023-01-26T05:09:02.980Z,18.23
2023-01-26T05:11:31.003Z,18.93
2023-01-26T05:13:59.253Z,19.07
2023-01-26T05:16:28.116Z,19.33
2023-01-26T05:18:56.208Z,18.63
2023-01-26T05:21:27.242Z,17.83
2023-01-26T05:23:55.561Z,18.53
2023-01-26T05:26:24.895Z,18.60
2023-01-26T05:28:52.885Z,19.77
2023-01-26T05:31:20.948Z,20.20
2023-01-26T05:33:49.560Z,18.23
2023-01-26T05:36:17.530Z,20.43
2023-01-26T05:38:45.469Z,18.87
2023-01-26T05:41:13.442Z,18.30
2023-01-26T05:43:42.886Z,20.17
2023-01-26T05:46:10.909Z,18.33
2023-01-26T05:48:38.982Z,19.53
2023-01-26T05:51:10.743Z,20.43
2023-01-26T05:53:38.977Z,19.10
2023-01-26T05:56:07.319Z,19.13
2023-01-26T05:58:35.293Z,19.10
2023-01-26T06:01:06.846Z,18.87
2023-01-26T06:03:34.802Z,19.07
2023-01-26T06:06:02.751Z,19.13
2023-01-26T06:08:32.276Z,19.13
2023-01-26T06:11:01.553Z,19.43
2023-01-26T06:13:30.377Z,19.43
2023-01-26T06:16:01.143Z,19.47
2023-01-26T06:18:30.604Z,18.47
2023-01-26T06:21:00.215Z,18.67
2023-01-26T06:23:28.477Z,19.27
2023-01-26T06:26:01.755Z,19.67
2023-01-26T06:28:31.354Z,20.30
2023-01-26T06:31:02.692Z,20.00
2023-01-26T06:33:34.943Z,19.77
2023-01-26T06:36:03.848Z,18.80
2023-01-26T06:38:32.542Z,20.63
2023-01-26T06:41:02.940Z,18.63
2023-01-26T06:43:31.256Z,18.70
2023-01-26T06:46:00.976Z,20.20
2023-01-26T06:48:32.038Z,20.27
2023-01-26T06:51:06.135Z,20.07
2023-01-26T06:53:38.066Z,19.43
2023-01-26T06:56:06.509Z,18.73
2023-01-26T06:58:34.489Z,18.93
2023-01-26T07:01:02.738Z,19.73
2023-01-26T07:03:32.270Z,19.33
2023-01-26T07:06:00.218Z,20.77
2023-01-26T07:08:28.198Z,21.03
2023-01-26T07:10:56.151Z,21.40
2023-01-26T07:13:24.111Z,21.17
2023-01-26T07:15:52.313Z,21.47
2023-01-26T07:18:20.263Z,21.13
2023-01-26T07:20:49.574Z,20.27
2023-01-26T07:23:17.559Z,20.77
2023-01-26T07:25:45.659Z,21.03
2023-01-26T07:28:13.623Z,20.27
2023-01-26T07:30:41.782Z,20.03
2023-01-26T07:33:09.829Z,20.80
2023-01-26T07:35:37.827Z,19.70
2023-01-26T07:38:08.019Z,19.93
2023-01-26T07:40:37.127Z,20.23
2023-01-26T07:43:05.099Z,20.90
2023-01-26T07:45:34.165Z,22.47
2023-01-26T07:48:02.206Z,20.83
2023-01-26T07:50:30.275Z,21.07
2023-01-26T07:53:00.945Z,21.57
2023-01-26T07:55:30.528Z,20.03
2023-01-26T07:57:58.870Z,20.73
2023-01-26T08:00:27.340Z,20.20
2023-01-26T08:02:55.384Z,21.33
2023-01-26T08:05:23.366Z,21.87
2023-01-26T08:07:51.482Z,21.23
2023-01-26T08:10:21.641Z,21.47
2023-01-26T08:12:50.986Z,21.50
2023-01-26T08:15:20.199Z,19.50
2023-01-26T08:17:48.263Z,21.63
2023-01-26T08:20:16.540Z,20.70
2023-01-26T08:22:44.510Z,20.77
2023-01-26T08:25:12.470Z,22.43
2023-01-26T08:27:42.315Z,23.03
2023-01-26T08:30:13.871Z,22.43
2023-01-26T08:32:42.092Z,22.37
2023-01-26T08:35:10.908Z,21.70
2023-01-26T08:37:38.878Z,21.73
2023-01-26T08:40:09.200Z,20.63
2023-01-26T08:42:37.264Z,21.80
2023-01-26T08:45:05.738Z,21.13
2023-01-26T08:47:35.105Z,21.10
2023-01-26T08:50:03.136Z,20.57
2023-01-26T08:52:31.141Z,20.83
2023-01-26T08:55:00.206Z,20.10
2023-01-26T08:57:28.499Z,21.03
2023-01-26T08:59:56.468Z,21.23
2023-01-26T09:02:24.515Z,21.30
2023-01-26T09:04:53.990Z,20.27
2023-01-26T09:07:22.020Z,20.07
2023-01-26T09:09:50.015Z,20.77
2023-01-26T09:12:17.983Z,22.33
2023-01-26T09:14:45.935Z,19.07
2023-01-26T09:17:13.901Z,21.60
2023-01-26T09:19:44.071Z,19.70
2023-01-26T09:22:14.293Z,20.47
2023-01-26T09:24:42.302Z,20.67
2023-01-26T09:27:10.413Z,21.03
2023-01-26T09:29:39.489Z,19.23
2023-01-26T09:32:07.789Z,18.27
2023-01-26T09:34:35.796Z,20.77
2023-01-26T09:37:03.848Z,21.33
2023-01-26T09:39:33.210Z,21.07
2023-01-26T09:42:17.292Z,21.77
2023-01-26T09:44:50.975Z,20.97
2023-01-26T09:47:27.069Z,20.67
2023-01-26T09:50:02.822Z,21.30
2023-01-26T09:52:34.502Z,19.97
2023-01-26T09:55:06.418Z,20.17
2023-01-26T09:57:38.599Z,20.27
2023-01-26T10:00:10.048Z,20.13
2023-01-26T10:02:51.538Z,20.90
2023-01-26T10:05:26.363Z,19.57
2023-01-26T10:07:54.366Z,19.57
2023-01-26T10:10:29.704Z,20.20
2023-01-26T10:12:58.674Z,20.67
2023-01-26T10:15:32.001Z,20.47
2023-01-26T10:18:03.470Z,21.17
2023-01-26T10:20:34.612Z,20.97
2023-01-26T10:23:06.516Z,20.07
2023-01-26T10:25:38.539Z,21.50
2023-01-26T10:28:15.105Z,20.00
2023-01-26T10:30:44.962Z,21.33
2023-01-26T10:33:17.776Z,21.27
2023-01-26T10:35:47.768Z,20.00
2023-01-26T10:38:30.022Z,20.30
2023-01-26T10:41:01.479Z,21.23
2023-01-26T10:43:29.809Z,20.07
2023-01-26T10:45:57.790Z,20.53
2023-01-26T10:48:26.809Z,20.97
2023-01-26T10:50:55.854Z,21.07
2023-01-26T10:53:25.136Z,20.77
2023-01-26T10:56:05.909Z,19.73
2023-01-26T10:58:46.548Z,20.30
2023-01-26T11:01:16.552Z,20.03
2023-01-26T11:04:06.801Z,20.20
2023-01-26T11:06:35.405Z,21.00
2023-01-26T11:09:19.281Z,20.93
2023-01-26T11:12:00.545Z,20.67
2023-01-26T11:14:29.981Z,20.70
2023-01-26T11:17:09.923Z,19.07
2023-01-26T11:20:04.263Z,20.77
2023-01-26T11:22:37.900Z,19.70
2023-01-26T11:25:18.665Z,20.87
2023-01-26T11:27:53.911Z,19.67
2023-01-26T11:30:46.650Z,20.47
2023-01-26T11:33:26.605Z,21.27
2023-01-26T11:36:03.736Z,19.40
2023-01-26T11:38:41.244Z,19.53
2023-01-26T11:41:35.583Z,18.83
2023-01-26T11:44:31.036Z,18.03
2023-01-26T11:47:17.245Z,17.37
2023-01-26T11:50:03.677Z,18.53
2023-01-26T11:52:43.307Z,18.37
2023-01-26T11:55:28.705Z,18.77
2023-01-26T11:58:26.848Z,18.43
2023-01-26T12:00:58.961Z,27.13
2023-01-26T12:03:34.330Z,32.87
2023-01-26T12:06:08.871Z,25.73
2023-01-26T12:08:41.924Z,23.57
2023-01-26T12:11:23.818Z,27.97
2023-01-26T12:14:08.932Z,30.93
2023-01-26T12:16:48.001Z,25.37
2023-01-26T12:19:29.057Z,21.77
2023-01-26T12:22:03.997Z,22.63
2023-01-26T12:25:04.725Z,22.13
2023-01-26T12:27:32.225Z,20.30
2023-01-26T12:30:06.719Z,20.87
2023-01-26T12:32:38.593Z,19.40
2023-01-26T12:35:11.480Z,20.10
2023-01-26T12:37:52.021Z,20.03
2023-01-26T12:40:32.586Z,21.90
2023-01-26T12:43:15.850Z,19.50
2023-01-26T12:45:48.708Z,19.10
2023-01-26T12:48:24.163Z,22.13
2023-01-26T12:50:58.846Z,21.53
2023-01-26T12:53:32.397Z,21.00
2023-01-26T12:56:10.398Z,19.53
2023-01-26T12:58:41.782Z,19.20
2023-01-26T13:01:13.572Z,19.40
2023-01-26T13:03:46.264Z,18.13
2023-01-26T13:06:22.126Z,18.03
2023-01-26T13:09:04.314Z,18.40
2023-01-26T13:11:50.301Z,19.30
2023-01-26T13:14:37.377Z,18.77
2023-01-26T13:17:51.175Z,19.87
2023-01-26T13:20:46.340Z,19.53
2023-01-26T13:23:53.039Z,19.03
2023-01-26T13:26:26.172Z,18.87
2023-01-26T13:29:32.919Z,20.20
2023-01-26T13:32:03.181Z,20.50
2023-01-26T13:34:37.792Z,24.67
2023-01-26T13:37:13.294Z,19.13
2023-01-26T13:39:45.458Z,20.27
2023-01-26T13:42:20.251Z,19.70
2023-01-26T13:44:55.803Z,18.63
2023-01-26T13:47:29.458Z,18.83
2023-01-26T13:49:57.504Z,17.90
2023-01-26T13:52:29.540Z,19.07
2023-01-26T13:54:58.511Z,19.53
2023-01-26T13:57:28.110Z,19.43
2023-01-26T13:59:59.105Z,20.83
2023-01-26T14:02:31.128Z,20.83
2023-01-26T14:04:59.682Z,21.33
2023-01-26T14:07:33.641Z,21.83
2023-01-26T14:10:03.270Z,21.30
2023-01-26T14:12:35.740Z,20.97
2023-01-26T14:15:07.232Z,19.73
2023-01-26T14:17:37.430Z,19.33
2023-01-26T14:20:21.997Z,19.77
2023-01-26T14:23:13.687Z,22.53
2023-01-26T14:25:43.022Z,22.20
2023-01-26T14:28:16.374Z,21.67
2023-01-26T14:30:52.945Z,21.90
2023-01-26T14:33:22.968Z,19.83
2023-01-26T14:35:58.544Z,20.77
2023-01-26T14:38:32.918Z,18.70
2023-01-26T14:41:01.811Z,18.60
2023-01-26T14:43:29.811Z,19.37
2023-01-26T14:46:04.043Z,19.10
2023-01-26T14:48:36.204Z,18.53
2023-01-26T14:51:08.228Z,19.77
2023-01-26T14:53:37.998Z,20.77
2023-01-26T14:56:06.526Z,19.63
2023-01-26T14:58:35.155Z,20.43
2023-01-26T15:01:05.837Z,20.37
2023-01-26T15:03:36.428Z,20.70
2023-01-26T15:06:20.478Z,20.20
2023-01-26T15:08:58.710Z,19.90
2023-01-26T15:11:52.369Z,18.87
2023-01-26T15:14:48.109Z,20.17
2023-01-26T15:17:31.367Z,20.27
2023-01-26T15:19:59.364Z,19.50
2023-01-26T15:22:28.066Z,19.23
2023-01-26T15:25:06.898Z,20.90
2023-01-26T15:27:36.462Z,18.93
2023-01-26T15:30:06.544Z,19.37
2023-01-26T15:32:40.466Z,20.30
2023-01-26T15:35:20.759Z,19.93
2023-01-26T15:37:50.153Z,19.93
2023-01-26T15:40:19.597Z,20.17
2023-01-26T15:42:47.576Z,19.93
2023-01-26T15:45:25.606Z,19.20
2023-01-26T15:47:53.717Z,20.10
2023-01-26T15:50:28.144Z,20.77
2023-01-26T15:52:56.590Z,20.00
2023-01-26T15:55:31.319Z,20.27
2023-01-26T15:57:59.400Z,21.50
2023-01-26T16:00:27.549Z,20.50
2023-01-26T16:02:55.525Z,20.73
2023-01-26T16:05:25.760Z,20.97
2023-01-26T16:07:53.792Z,21.70
2023-01-26T16:10:21.988Z,22.20
2023-01-26T16:12:54.193Z,21.97
2023-01-26T16:15:29.571Z,22.73
2023-01-26T16:17:57.574Z,22.43
2023-01-26T16:20:25.569Z,21.43
2023-01-26T16:22:53.518Z,21.87
2023-01-26T16:25:28.225Z,21.60
2023-01-26T16:27:59.431Z,22.33
2023-01-26T16:30:28.020Z,23.23
2023-01-26T16:32:56.013Z,23.53
2023-01-26T16:35:24.724Z,20.77
2023-01-26T16:37:52.785Z,21.83
2023-01-26T16:40:21.149Z,22.53
2023-01-26T16:42:51.074Z,22.30
2023-01-26T16:45:22.234Z,23.20
2023-01-26T16:47:52.223Z,23.57
2023-01-26T16:50:20.571Z,24.60
2023-01-26T16:52:48.559Z,22.67
2023-01-26T16:55:17.105Z,24.73
2023-01-26T16:57:49.691Z,24.20
2023-01-26T17:00:21.226Z,24.67
2023-01-26T17:02:51.947Z,24.77
2023-01-26T17:05:22.144Z,23.57
2023-01-26T17:07:50.933Z,25.23
2023-01-26T17:10:22.006Z,22.67
2023-01-26T17:12:53.147Z,22.17
2023-01-26T17:15:24.503Z,24.13
2023-01-26T17:17:53.046Z,23.17
2023-01-26T17:20:21.769Z,24.03
2023-01-26T17:22:50.527Z,24.97
2023-01-26T17:25:19.740Z,23.67
2023-01-26T17:27:50.554Z,23.27
2023-01-26T17:30:19.663Z,24.53
2023-01-26T17:32:49.044Z,24.43
2023-01-26T17:35:17.211Z,23.97
2023-01-26T17:37:45.153Z,24.47
2023-01-26T17:40:14.226Z,25.80
2023-01-26T17:42:42.261Z,23.13
2023-01-26T17:45:11.215Z,23.87
2023-01-26T17:47:39.696Z,23.60
2023-01-26T17:50:10.378Z,23.60
2023-01-26T17:52:38.421Z,24.60
2023-01-26T17:55:08.473Z,21.77
2023-01-26T17:57:36.484Z,23.13
2023-01-26T18:00:06.161Z,23.10
2023-01-26T18:02:34.316Z,22.93
2023-01-26T18:05:02.475Z,23.93
2023-01-26T18:07:32.979Z,23.47
2023-01-26T18:10:00.945Z,23.00
2023-01-26T18:12:28.948Z,23.70
2023-01-26T18:14:56.962Z,24.90
2023-01-26T18:17:26.133Z,23.73
2023-01-26T18:19:54.249Z,24.40
2023-01-26T18:22:22.253Z,25.03
2023-01-26T18:24:52.685Z,24.43
2023-01-26T18:27:20.644Z,26.30
2023-01-26T18:29:48.908Z,25.53
2023-01-26T18:32:16.929Z,24.03
2023-01-26T18:34:47.940Z,25.23
2023-01-26T18:37:15.971Z,24.97
2023-01-26T18:39:46.481Z,23.90
2023-01-26T18:42:15.793Z,25.27
2023-01-26T18:44:43.858Z,25.63
2023-01-26T18:47:11.820Z,27.00
2023-01-26T18:49:42.467Z,27.07
2023-01-26T18:52:10.442Z,28.60
2023-01-26T18:54:38.450Z,28.20
2023-01-26T18:57:06.398Z,26.70
2023-01-26T18:59:35.987Z,27.87
2023-01-26T19:02:06.800Z,28.03
2023-01-26T19:04:34.965Z,26.60
2023-01-26T19:07:02.937Z,26.50
2023-01-26T19:09:33.084Z,26.17
2023-01-26T19:12:02.066Z,27.57
2023-01-26T19:14:32.176Z,28.37
2023-01-26T19:17:01.786Z,27.70
2023-01-26T19:19:31.724Z,29.30
2023-01-26T19:21:59.777Z,27.43
2023-01-26T19:24:27.800Z,29.70
2023-01-26T19:26:55.805Z,28.63
2023-01-26T19:29:23.859Z,29.27
2023-01-26T19:31:51.870Z,30.13
2023-01-26T19:34:21.265Z,29.00
2023-01-26T19:36:49.224Z,27.90
2023-01-26T19:39:17.212Z,29.90
2023-01-26T19:41:46.246Z,30.43
2023-01-26T19:44:14.232Z,30.77
2023-01-26T19:46:43.493Z,29.70
2023-01-26T19:49:13.413Z,29.77
2023-01-26T19:51:44.262Z,28.73
2023-01-26T19:54:13.772Z,27.67
2023-01-26T19:56:42.034Z,28.53
2023-01-26T19:59:13.237Z,27.07
2023-01-26T20:01:41.241Z,28.07
2023-01-26T20:04:12.416Z,26.67
2023-01-26T20:06:41.958Z,27.33
2023-01-26T20:09:10.250Z,28.00
2023-01-26T20:11:38.221Z,28.90
2023-01-26T20:14:08.399Z,29.63
2023-01-26T20:16:36.757Z,28.60
2023-01-26T20:19:05.108Z,28.97
2023-01-26T20:21:35.444Z,27.33
2023-01-26T20:24:08.172Z,29.10
2023-01-26T20:26:36.565Z,28.97
2023-01-26T20:29:08.165Z,28.60
2023-01-26T20:31:36.199Z,30.03
2023-01-26T20:34:09.336Z,28.47
2023-01-26T20:36:38.637Z,29.67
2023-01-26T20:39:09.873Z,29.63
2023-01-26T20:41:37.861Z,28.17
2023-01-26T20:44:07.573Z,28.50
2023-01-26T20:46:37.816Z,30.23
2023-01-26T20:49:08.649Z,28.07
2023-01-26T20:51:39.632Z,28.90
2023-01-26T20:54:11.502Z,30.13
2023-01-26T20:56:41.828Z,27.93
2023-01-26T20:59:11.661Z,28.40
2023-01-26T21:01:39.837Z,30.07
2023-01-26T21:04:08.268Z,28.67
2023-01-26T21:06:36.886Z,28.43
2023-01-26T21:09:06.037Z,29.40
2023-01-26T21:11:36.417Z,31.73
2023-01-26T21:14:05.186Z,30.83
2023-01-26T21:16:35.624Z,28.67
2023-01-26T21:19:06.544Z,29.43
2023-01-26T21:21:34.810Z,28.00
2023-01-26T21:24:03.521Z,26.90
2023-01-26T21:26:33.489Z,29.53
2023-01-26T21:29:05.402Z,29.43
2023-01-26T21:31:34.798Z,29.70
2023-01-26T21:34:03.112Z,31.13
2023-01-26T21:36:32.421Z,31.50
2023-01-26T21:39:01.888Z,28.70
2023-01-26T21:41:48.623Z,30.47
2023-01-26T21:44:20.450Z,27.73
2023-01-26T21:46:51.330Z,29.40
2023-01-26T21:49:19.727Z,28.63
2023-01-26T21:52:05.358Z,26.93
2023-01-26T21:54:33.549Z,29.83
2023-01-26T21:57:24.924Z,28.77
2023-01-26T21:59:54.073Z,29.50
2023-01-26T22:02:22.351Z,30.37
2023-01-26T22:04:50.711Z,29.43
2023-01-26T22:07:18.681Z,29.90
2023-01-26T22:09:46.893Z,28.47
2023-01-26T22:12:14.875Z,29.67
2023-01-26T22:14:42.959Z,31.37
2023-01-26T22:17:12.329Z,29.90
2023-01-26T22:19:40.356Z,30.30
2023-01-26T22:22:08.342Z,30.03
2023-01-26T22:24:36.319Z,33.43
2023-01-26T22:27:06.843Z,31.53
2023-01-26T22:29:37.789Z,30.53
2023-01-26T22:32:06.395Z,30.40
2023-01-26T22:34:36.135Z,30.20
2023-01-26T22:37:06.005Z,31.57
2023-01-26T22:39:33.975Z,30.33
2023-01-26T22:42:01.950Z,29.47
2023-01-26T22:44:29.938Z,28.80
2023-01-26T22:46:57.964Z,31.13
2023-01-26T22:49:25.972Z,29.73
2023-01-26T22:51:55.321Z,31.63
2023-01-26T22:54:23.357Z,31.00
2023-01-26T22:56:51.344Z,30.83
2023-01-26T22:59:19.307Z,32.43
2023-01-26T23:01:47.490Z,32.97
2023-01-26T23:04:18.123Z,32.47
2023-01-26T23:06:46.368Z,32.43
2023-01-26T23:09:15.995Z,31.50
2023-01-26T23:11:44.008Z,33.17
2023-01-26T23:14:12.011Z,34.00
2023-01-26T23:16:40.029Z,34.47
2023-01-26T23:19:08.073Z,33.77
2023-01-26T23:21:36.020Z,34.03
2023-01-26T23:24:04.086Z,33.83
2023-01-26T23:26:33.465Z,33.03
2023-01-26T23:29:03.734Z,34.10
2023-01-26T23:31:32.589Z,33.33
2023-01-26T23:34:01.054Z,33.43
2023-01-26T23:36:29.023Z,32.73
2023-01-26T23:38:56.957Z,32.07
2023-01-26T23:41:24.938Z,33.90
2023-01-26T23:43:54.414Z,32.77
2023-01-26T23:46:22.525Z,34.13
2023-01-26T23:48:50.518Z,32.00
2023-01-26T23:51:18.498Z,35.93
2023-01-26T23:53:46.975Z,34.93
2023-01-26T23:56:17.448Z,34.17
2023-01-26T23:58:45.760Z,35.50
